Riverside, Iowa
Current Conditions -  °F | °C
As of 10:35 AM on Saturday 22 Nov 2014 (Local Time) from KIOW Reporting Station
Haze Haze  
Wind Chill: 43°   Ceiling: 300
Heat Index: 47°   Visibility: 3mi
Dew Point: 46°   Wind: 8mph
Humidity: 97%   Direction: 220°SW
Pressure: 29.91"   Gusts: NA
Location:  41.48°N, 91.58°W
Report Text: KIOW 221635Z AUTO 22007KT 3SM BR OVC003 08/08 A2991 RMK AO2 T00830078
Loading
Personal Weather Stations






























Interactive Weather Map New forecast layout! Learn more

10-Day Weather Forecast

Advertisements
Track Severe Weather on mobile